Airfield :
LOGIN :

Register | Disclaimer

   EN    FR    IT 

 










Legend :    VFR   Marginal VFR   IFR   Intensive IFR   Very Intensive IFR
Visi :
Ceiling :
>= 8 km
>= 3000ft
5 to 8 km
1000 to 3000 ft
1500m to 5 km
500 to 1000 ft
800 to 1500m
200 to 500 ft
< 800m
< 200 ft
Symbols :   Thunderstorms  Fog  Heavy snow  Heavy precipitations  Wind > 20 kt
SIGMETs :     Misc.  Thunderstorms  Icing  Turbulence  Mountain Waves  Volcanic Ashes






- Airport Elevation : 386 ft
- IATA code : QOE


ETNN - Nörvenich Airforce Base

CURRENT METAR :
  • 242020Z 17005KT 9999 RA BKN060 15/11 Q0999 BLU

EXPIRED METARs :
  • 241920Z 13005KT 9999 BKN080 BKN200 17/08 Q0999 BLU
  • 241820Z VRB03KT 9999 BKN100 BKN200 17/07 Q0999 BLU

TAF TAF ETNN
Valid from the 24 at 20:00 until the 25 at 05:00 UTC


241900Z 2420/2505 17007KT 9999 NSW SCT040 BKN080
TEMPO 2420/2503 19015KT 5000 SHRA SCT020 BKN030CB
PROB30 2420/2502 20015G25KT 3000 TSRA SCT010 BKN020CB BY ETGL



MET'MAP, your aeronautical weather chart ! - Copyright ORBIFLY December 2007 - Disclaimer

ORBIFLY MET'MAP TEAM :

Programming & Development : Alexandra Zaïnal
Concept & original design : Baudouin d'Aumeries
Assistance for programming : Marc-Olivier Méhu
Technical & hardware support : Manuel Goepfert

Contact : metmap@orbifly.com




SOURCES & CREDITS :

   NOAA